sensor_id;sensor_type;location;lat;lon;timestamp;pressure;altitude;pressure_sealevel;temperature;humidity
11413;BME280;5762;43.256;26.960;2023-11-19T00:00:20;98782.19;;;1.96;100.00
11413;BME280;5762;43.256;26.960;2023-11-19T00:02:49;98784.05;;;1.96;100.00
11413;BME280;5762;43.256;26.960;2023-11-19T00:05:18;98788.33;;;1.97;100.00
11413;BME280;5762;43.256;26.960;2023-11-19T00:07:47;98800.34;;;1.99;100.00
11413;BME280;5762;43.256;26.960;2023-11-19T00:10:16;98808.06;;;1.96;100.00
11413;BME280;5762;43.256;26.960;2023-11-19T00:12:48;98783.27;;;2.00;100.00
11413;BME280;5762;43.256;26.960;2023-11-19T00:15:17;98802.20;;;1.99;100.00
11413;BME280;5762;43.256;26.960;2023-11-19T00:17:46;98808.89;;;2.07;100.00
11413;BME280;5762;43.256;26.960;2023-11-19T00:20:15;98827.55;;;2.09;100.00
11413;BME280;5762;43.256;26.960;2023-11-19T00:22:44;98829.17;;;2.08;100.00
11413;BME280;5762;43.256;26.960;2023-11-19T00:25:20;98832.08;;;2.09;100.00
11413;BME280;5762;43.256;26.960;2023-11-19T00:27:48;98845.71;;;2.05;100.00
11413;BME280;5762;43.256;26.960;2023-11-19T00:30:17;98852.39;;;2.07;100.00
11413;BME280;5762;43.256;26.960;2023-11-19T00:32:45;98844.36;;;2.10;100.00
11413;BME280;5762;43.256;26.960;2023-11-19T00:35:13;98842.50;;;2.03;100.00
11413;BME280;5762;43.256;26.960;2023-11-19T00:37:42;98844.89;;;1.99;100.00
11413;BME280;5762;43.256;26.960;2023-11-19T00:40:11;98861.70;;;1.99;100.00
11413;BME280;5762;43.256;26.960;2023-11-19T00:42:39;98873.17;;;1.97;100.00
11413;BME280;5762;43.256;26.960;2023-11-19T00:45:08;98879.31;;;1.98;100.00
11413;BME280;5762;43.256;26.960;2023-11-19T00:47:37;98860.38;;;1.99;100.00
11413;BME280;5762;43.256;26.960;2023-11-19T00:50:06;98853.44;;;2.01;100.00
11413;BME280;5762;43.256;26.960;2023-11-19T00:52:38;98869.98;;;1.98;100.00
11413;BME280;5762;43.256;26.960;2023-11-19T00:55:06;98882.78;;;1.98;100.00
11413;BME280;5762;43.256;26.960;2023-11-19T00:57:35;98872.66;;;2.00;100.00
11413;BME280;5762;43.256;26.960;2023-11-19T01:00:05;98869.45;;;2.01;100.00
11413;BME280;5762;43.256;26.960;2023-11-19T01:02:36;98869.19;;;2.03;100.00
11413;BME280;5762;43.256;26.960;2023-11-19T01:05:07;98878.26;;;2.01;100.00
11413;BME280;5762;43.256;26.960;2023-11-19T01:07:35;98888.67;;;2.03;100.00
11413;BME280;5762;43.256;26.960;2023-11-19T01:10:04;98884.67;;;2.06;100.00
11413;BME280;5762;43.256;26.960;2023-11-19T01:12:33;98885.46;;;2.01;100.00
11413;BME280;5762;43.256;26.960;2023-11-19T01:15:01;98896.94;;;2.01;100.00
11413;BME280;5762;43.256;26.960;2023-11-19T01:17:30;98898.80;;;2.01;100.00
11413;BME280;5762;43.256;26.960;2023-11-19T01:19:59;98902.27;;;2.01;100.00
11413;BME280;5762;43.256;26.960;2023-11-19T01:22:28;98896.37;;;1.94;100.00
11413;BME280;5762;43.256;26.960;2023-11-19T01:24:56;98908.38;;;1.94;100.00
11413;BME280;5762;43.256;26.960;2023-11-19T01:27:25;98913.46;;;1.96;100.00
11413;BME280;5762;43.256;26.960;2023-11-19T01:29:54;98904.39;;;1.97;100.00
11413;BME280;5762;43.256;26.960;2023-11-19T01:32:23;98908.94;;;1.99;100.00
11413;BME280;5762;43.256;26.960;2023-11-19T01:34:52;98926.28;;;1.99;100.00
11413;BME280;5762;43.256;26.960;2023-11-19T01:37:21;98922.81;;;1.98;100.00
11413;BME280;5762;43.256;26.960;2023-11-19T01:39:50;98916.14;;;1.98;100.00
11413;BME280;5762;43.256;26.960;2023-11-19T01:42:19;98923.08;;;1.99;100.00
11413;BME280;5762;43.256;26.960;2023-11-19T01:44:57;98929.73;;;1.94;100.00
11413;BME280;5762;43.256;26.960;2023-11-19T01:47:26;98927.08;;;1.99;100.00
11413;BME280;5762;43.256;26.960;2023-11-19T01:49:55;98930.83;;;2.01;100.00
11413;BME280;5762;43.256;26.960;2023-11-19T01:52:25;98914.77;;;1.91;100.00
11413;BME280;5762;43.256;26.960;2023-11-19T01:54:54;98937.45;;;1.93;100.00
11413;BME280;5762;43.256;26.960;2023-11-19T01:57:23;98918.49;;;1.87;100.00
11413;BME280;5762;43.256;26.960;2023-11-19T01:59:52;98935.83;;;1.87;100.00
11413;BME280;5762;43.256;26.960;2023-11-19T02:02:22;98936.38;;;1.89;100.00
11413;BME280;5762;43.256;26.960;2023-11-19T02:04:51;98939.86;;;1.92;100.00
11413;BME280;5762;43.256;26.960;2023-11-19T02:07:20;98936.67;;;1.95;100.00
11413;BME280;5762;43.256;26.960;2023-11-19T02:09:49;98959.36;;;1.98;100.00
11413;BME280;5762;43.256;26.960;2023-11-19T02:12:18;98930.28;;;1.99;100.00
11413;BME280;5762;43.256;26.960;2023-11-19T02:14:46;98938.02;;;2.00;100.00
11413;BME280;5762;43.256;26.960;2023-11-19T02:17:25;98940.16;;;2.01;100.00
11413;BME280;5762;43.256;26.960;2023-11-19T02:19:54;98948.17;;;2.01;100.00
11413;BME280;5762;43.256;26.960;2023-11-19T02:22:22;98956.70;;;2.00;100.00
11413;BME280;5762;43.256;26.960;2023-11-19T02:24:52;98946.03;;;2.00;100.00
11413;BME280;5762;43.256;26.960;2023-11-19T02:27:23;98967.13;;;2.05;100.00
11413;BME280;5762;43.256;26.960;2023-11-19T02:29:50;98963.38;;;2.08;100.00
11413;BME280;5762;43.256;26.960;2023-11-19T02:32:18;98963.11;;;2.02;100.00
11413;BME280;5762;43.256;26.960;2023-11-19T02:34:47;98976.98;;;2.01;100.00
11413;BME280;5762;43.256;26.960;2023-11-19T02:37:17;98970.33;;;2.04;100.00
11413;BME280;5762;43.256;26.960;2023-11-19T02:39:46;98967.12;;;2.02;100.00
11413;BME280;5762;43.256;26.960;2023-11-19T02:42:14;98970.05;;;2.00;100.00
11413;BME280;5762;43.256;26.960;2023-11-19T02:44:44;98970.84;;;1.98;100.00
11413;BME280;5762;43.256;26.960;2023-11-19T02:47:13;98960.67;;;1.93;100.00
11413;BME280;5762;43.256;26.960;2023-11-19T02:49:41;98947.58;;;1.89;100.00
11413;BME280;5762;43.256;26.960;2023-11-19T02:52:10;98986.52;;;1.87;100.00
11413;BME280;5762;43.256;26.960;2023-11-19T02:54:39;98967.00;;;1.79;100.00
11413;BME280;5762;43.256;26.960;2023-11-19T02:57:08;98979.53;;;1.79;100.00
11413;BME280;5762;43.256;26.960;2023-11-19T02:59:38;98978.98;;;1.74;100.00
11413;BME280;5762;43.256;26.960;2023-11-19T03:02:07;98977.40;;;1.73;100.00
11413;BME280;5762;43.256;26.960;2023-11-19T03:04:40;98978.17;;;1.74;100.00
11413;BME280;5762;43.256;26.960;2023-11-19T03:07:09;98988.86;;;1.71;100.00
11413;BME280;5762;43.256;26.960;2023-11-19T03:09:38;98973.92;;;1.73;100.00
11413;BME280;5762;43.256;26.960;2023-11-19T03:12:07;98974.46;;;1.72;100.00
11413;BME280;5762;43.256;26.960;2023-11-19T03:14:36;98982.98;;;1.77;100.00
11413;BME280;5762;43.256;26.960;2023-11-19T03:17:04;98974.73;;;1.73;100.00
11413;BME280;5762;43.256;26.960;2023-11-19T03:19:33;98980.34;;;1.79;100.00
11413;BME280;5762;43.256;26.960;2023-11-19T03:22:02;98985.13;;;1.77;100.00
11413;BME280;5762;43.256;26.960;2023-11-19T03:24:31;99001.64;;;1.74;100.00
11413;BME280;5762;43.256;26.960;2023-11-19T03:27:00;98996.06;;;1.73;100.00
11413;BME280;5762;43.256;26.960;2023-11-19T03:29:29;99018.73;;;1.76;100.00
11413;BME280;5762;43.256;26.960;2023-11-19T03:31:58;99007.80;;;1.72;100.00
11413;BME280;5762;43.256;26.960;2023-11-19T03:34:26;99020.59;;;1.75;100.00
11413;BME280;5762;43.256;26.960;2023-11-19T03:36:55;99014.73;;;1.73;100.00
11413;BME280;5762;43.256;26.960;2023-11-19T03:39:24;99027.27;;;1.75;100.00
11413;BME280;5762;43.256;26.960;2023-11-19T03:41:52;99020.08;;;1.78;100.00
11413;BME280;5762;43.256;26.960;2023-11-19T03:44:21;99025.41;;;1.78;100.00
11413;BME280;5762;43.256;26.960;2023-11-19T03:46:50;99032.63;;;1.80;100.00
11413;BME280;5762;43.256;26.960;2023-11-19T03:49:19;99029.17;;;1.82;100.00
11413;BME280;5762;43.256;26.960;2023-11-19T03:51:48;99022.55;;;1.90;100.00
11413;BME280;5762;43.256;26.960;2023-11-19T03:54:17;99020.95;;;1.91;100.00
11413;BME280;5762;43.256;26.960;2023-11-19T03:56:48;99040.12;;;1.83;100.00
11413;BME280;5762;43.256;26.960;2023-11-19T03:59:17;99040.63;;;1.80;100.00
11413;BME280;5762;43.256;26.960;2023-11-19T04:01:46;99061.15;;;1.77;100.00
11413;BME280;5762;43.256;26.960;2023-11-19T04:04:15;99050.50;;;1.80;100.00
11413;BME280;5762;43.256;26.960;2023-11-19T04:06:44;99054.50;;;1.80;100.00
11413;BME280;5762;43.256;26.960;2023-11-19T04:09:13;99047.55;;;1.79;100.00
11413;BME280;5762;43.256;26.960;2023-11-19T04:11:41;99057.19;;;1.82;100.00
11413;BME280;5762;43.256;26.960;2023-11-19T04:14:10;99040.92;;;1.84;100.00
11413;BME280;5762;43.256;26.960;2023-11-19T04:16:40;99050.80;;;1.86;100.00
11413;BME280;5762;43.256;26.960;2023-11-19T04:19:09;99055.88;;;1.87;100.00
11413;BME280;5762;43.256;26.960;2023-11-19T04:21:39;99071.63;;;1.89;100.00
11413;BME280;5762;43.256;26.960;2023-11-19T04:24:07;99056.95;;;1.86;100.00
11413;BME280;5762;43.256;26.960;2023-11-19T04:26:39;99056.43;;;1.89;100.00
11413;BME280;5762;43.256;26.960;2023-11-19T04:29:06;99074.05;;;1.90;100.00
11413;BME280;5762;43.256;26.960;2023-11-19T04:31:35;99072.98;;;1.91;100.00
11413;BME280;5762;43.256;26.960;2023-11-19T04:34:04;99088.22;;;1.96;100.00
11413;BME280;5762;43.256;26.960;2023-11-19T04:36:36;99089.55;;;1.93;100.00
11413;BME280;5762;43.256;26.960;2023-11-19T04:39:05;99086.87;;;1.93;100.00
11413;BME280;5762;43.256;26.960;2023-11-19T04:41:36;99098.88;;;1.93;100.00
11413;BME280;5762;43.256;26.960;2023-11-19T04:44:05;99091.95;;;1.95;100.00
11413;BME280;5762;43.256;26.960;2023-11-19T04:46:34;99085.25;;;1.90;100.00
11413;BME280;5762;43.256;26.960;2023-11-19T04:49:03;99088.45;;;1.89;100.00
11413;BME280;5762;43.256;26.960;2023-11-19T04:51:37;99073.22;;;1.87;100.00
11413;BME280;5762;43.256;26.960;2023-11-19T04:54:01;99079.36;;;1.88;100.00
11413;BME280;5762;43.256;26.960;2023-11-19T04:56:30;99083.88;;;1.85;100.00
11413;BME280;5762;43.256;26.960;2023-11-19T04:58:59;99090.84;;;1.88;100.00
11413;BME280;5762;43.256;26.960;2023-11-19T05:01:27;99077.50;;;1.88;100.00
11413;BME280;5762;43.256;26.960;2023-11-19T05:03:56;99077.53;;;1.93;100.00
11413;BME280;5762;43.256;26.960;2023-11-19T05:06:26;99089.55;;;1.93;100.00
11413;BME280;5762;43.256;26.960;2023-11-19T05:08:55;99091.41;;;1.93;100.00
11413;BME280;5762;43.256;26.960;2023-11-19T05:11:24;99098.37;;;1.96;100.00
11413;BME280;5762;43.256;26.960;2023-11-19T05:13:53;99090.64;;;1.97;100.00
11413;BME280;5762;43.256;26.960;2023-11-19T05:16:22;99091.15;;;1.94;100.00
11413;BME280;5762;43.256;26.960;2023-11-19T05:18:52;99085.81;;;1.94;100.00
11413;BME280;5762;43.256;26.960;2023-11-19T05:21:20;99091.68;;;1.94;100.00
11413;BME280;5762;43.256;26.960;2023-11-19T05:23:48;99094.63;;;1.95;100.00
11413;BME280;5762;43.256;26.960;2023-11-19T05:26:18;99103.69;;;1.94;100.00
11413;BME280;5762;43.256;26.960;2023-11-19T05:28:48;99102.88;;;1.93;100.00
11413;BME280;5762;43.256;26.960;2023-11-19T05:31:17;99108.23;;;1.96;100.00
11413;BME280;5762;43.256;26.960;2023-11-19T05:33:46;99113.31;;;1.97;100.00
11413;BME280;5762;43.256;26.960;2023-11-19T05:36:15;99122.40;;;1.99;100.00
11413;BME280;5762;43.256;26.960;2023-11-19T05:38:44;99105.34;;;2.03;100.00
11413;BME280;5762;43.256;26.960;2023-11-19T05:41:13;99128.58;;;2.05;100.00
11413;BME280;5762;43.256;26.960;2023-11-19T05:43:41;99126.73;;;2.08;100.00
11413;BME280;5762;43.256;26.960;2023-11-19T05:46:09;99126.97;;;2.04;100.00
11413;BME280;5762;43.256;26.960;2023-11-19T05:48:38;99140.32;;;2.09;100.00
11413;BME280;5762;43.256;26.960;2023-11-19T05:51:07;99135.53;;;2.06;100.00
11413;BME280;5762;43.256;26.960;2023-11-19T05:53:36;99145.41;;;2.08;100.00
11413;BME280;5762;43.256;26.960;2023-11-19T05:56:05;99151.80;;;2.09;100.00
11413;BME280;5762;43.256;26.960;2023-11-19T05:58:35;99151.80;;;2.09;100.00
11413;BME280;5762;43.256;26.960;2023-11-19T06:01:04;99140.08;;;2.13;100.00
11413;BME280;5762;43.256;26.960;2023-11-19T06:03:33;99139.28;;;2.12;100.00
11413;BME280;5762;43.256;26.960;2023-11-19T06:06:02;99150.80;;;2.18;100.00
11413;BME280;5762;43.256;26.960;2023-11-19T06:08:31;99156.91;;;2.13;100.00
11413;BME280;5762;43.256;26.960;2023-11-19T06:11:00;99169.50;;;2.20;100.00
11413;BME280;5762;43.256;26.960;2023-11-19T06:13:28;99170.84;;;2.23;100.00
11413;BME280;5762;43.256;26.960;2023-11-19T06:15:57;99173.52;;;2.23;100.00
11413;BME280;5762;43.256;26.960;2023-11-19T06:18:26;99172.19;;;2.23;100.00
11413;BME280;5762;43.256;26.960;2023-11-19T06:20:55;99177.56;;;2.28;100.00
11413;BME280;5762;43.256;26.960;2023-11-19T06:23:24;99180.74;;;2.25;100.00
11413;BME280;5762;43.256;26.960;2023-11-19T06:25:52;99171.40;;;2.25;100.00
11413;BME280;5762;43.256;26.960;2023-11-19T06:28:21;99158.59;;;2.27;100.00
11413;BME280;5762;43.256;26.960;2023-11-19T06:30:50;99174.91;;;2.30;100.00
11413;BME280;5762;43.256;26.960;2023-11-19T06:33:19;99176.52;;;2.31;100.00
11413;BME280;5762;43.256;26.960;2023-11-19T06:35:48;99178.16;;;2.38;100.00
11413;BME280;5762;43.256;26.960;2023-11-19T06:38:17;99186.68;;;2.34;100.00
11413;BME280;5762;43.256;26.960;2023-11-19T06:40:46;99185.33;;;2.32;100.00
11413;BME280;5762;43.256;26.960;2023-11-19T06:43:14;99169.28;;;2.27;100.00
11413;BME280;5762;43.256;26.960;2023-11-19T06:45:43;99192.81;;;2.32;100.00
11413;BME280;5762;43.256;26.960;2023-11-19T06:48:12;99191.71;;;2.28;100.00
11413;BME280;5762;43.256;26.960;2023-11-19T06:50:40;99202.94;;;2.30;100.00
11413;BME280;5762;43.256;26.960;2023-11-19T06:53:09;99195.73;;;2.31;100.00
11413;BME280;5762;43.256;26.960;2023-11-19T06:55:37;99208.30;;;2.33;100.00
11413;BME280;5762;43.256;26.960;2023-11-19T06:58:06;99216.05;;;2.34;100.00
11413;BME280;5762;43.256;26.960;2023-11-19T07:00:35;99216.31;;;2.33;100.00
11413;BME280;5762;43.256;26.960;2023-11-19T07:03:04;99214.19;;;2.35;100.00
11413;BME280;5762;43.256;26.960;2023-11-19T07:05:33;99228.59;;;2.34;100.00
11413;BME280;5762;43.256;26.960;2023-11-19T07:08:02;99239.81;;;2.33;100.00
11413;BME280;5762;43.256;26.960;2023-11-19T07:10:31;99244.07;;;2.32;100.00
11413;BME280;5762;43.256;26.960;2023-11-19T07:13:00;99237.61;;;2.25;100.00
11413;BME280;5762;43.256;26.960;2023-11-19T07:15:29;99241.98;;;2.39;100.00
11413;BME280;5762;43.256;26.960;2023-11-19T07:17:59;99243.56;;;2.35;100.00
11413;BME280;5762;43.256;26.960;2023-11-19T07:20:28;99250.23;;;2.35;100.00
11413;BME280;5762;43.256;26.960;2023-11-19T07:22:57;99246.25;;;2.38;100.00
11413;BME280;5762;43.256;26.960;2023-11-19T07:25:26;99254.79;;;2.37;100.00
11413;BME280;5762;43.256;26.960;2023-11-19T07:27:54;99254.55;;;2.41;100.00
11413;BME280;5762;43.256;26.960;2023-11-19T07:30:23;99257.51;;;2.47;100.00
11413;BME280;5762;43.256;26.960;2023-11-19T07:32:53;99265.52;;;2.47;100.00
11413;BME280;5762;43.256;26.960;2023-11-19T07:35:22;99274.87;;;2.47;100.00
11413;BME280;5762;43.256;26.960;2023-11-19T07:37:50;99271.66;;;2.48;100.00
11413;BME280;5762;43.256;26.960;2023-11-19T07:40:19;99279.73;;;2.55;100.00
11413;BME280;5762;43.256;26.960;2023-11-19T07:42:48;99279.50;;;2.59;100.00
11413;BME280;5762;43.256;26.960;2023-11-19T07:45:17;99284.53;;;2.53;100.00
11413;BME280;5762;43.256;26.960;2023-11-19T07:47:46;99277.34;;;2.56;100.00
11413;BME280;5762;43.256;26.960;2023-11-19T07:50:14;99277.64;;;2.60;100.00
11413;BME280;5762;43.256;26.960;2023-11-19T07:52:43;99266.93;;;2.57;100.00
11413;BME280;5762;43.256;26.960;2023-11-19T07:55:12;99276.57;;;2.61;100.00
11413;BME280;5762;43.256;26.960;2023-11-19T07:57:40;99286.20;;;2.62;100.00
11413;BME280;5762;43.256;26.960;2023-11-19T08:00:10;99270.75;;;2.69;100.00
11413;BME280;5762;43.256;26.960;2023-11-19T08:02:39;99278.78;;;2.72;100.00
11413;BME280;5762;43.256;26.960;2023-11-19T08:05:08;99292.45;;;2.83;100.00
11413;BME280;5762;43.256;26.960;2023-11-19T08:07:37;99302.67;;;2.91;100.00
11413;BME280;5762;43.256;26.960;2023-11-19T08:10:06;99316.63;;;3.00;100.00
11413;BME280;5762;43.256;26.960;2023-11-19T08:12:36;99296.35;;;3.07;100.00
11413;BME280;5762;43.256;26.960;2023-11-19T08:15:05;99309.48;;;3.16;100.00
11413;BME280;5762;43.256;26.960;2023-11-19T08:17:34;99329.56;;;3.21;100.00
11413;BME280;5762;43.256;26.960;2023-11-19T08:20:02;99324.51;;;3.27;100.00
11413;BME280;5762;43.256;26.960;2023-11-19T08:22:31;99330.67;;;3.30;100.00
11413;BME280;5762;43.256;26.960;2023-11-19T08:25:00;99336.84;;;3.33;100.00
11413;BME280;5762;43.256;26.960;2023-11-19T08:27:29;99349.95;;;3.32;100.00
11413;BME280;5762;43.256;26.960;2023-11-19T08:29:58;99351.88;;;3.42;100.00
11413;BME280;5762;43.256;26.960;2023-11-19T08:32:26;99353.23;;;3.52;100.00
11413;BME280;5762;43.256;26.960;2023-11-19T08:34:55;99357.83;;;3.62;100.00
11413;BME280;5762;43.256;26.960;2023-11-19T08:37:24;99369.05;;;3.59;100.00
11413;BME280;5762;43.256;26.960;2023-11-19T08:39:53;99386.19;;;3.63;100.00
11413;BME280;5762;43.256;26.960;2023-11-19T08:42:22;99374.70;;;3.65;100.00
11413;BME280;5762;43.256;26.960;2023-11-19T08:44:50;99378.70;;;3.62;100.00
11413;BME280;5762;43.256;26.960;2023-11-19T08:47:19;99383.24;;;3.62;100.00
11413;BME280;5762;43.256;26.960;2023-11-19T08:49:52;99393.13;;;3.59;100.00
11413;BME280;5762;43.256;26.960;2023-11-19T08:52:21;99398.52;;;3.66;100.00
11413;BME280;5762;43.256;26.960;2023-11-19T08:54:49;99397.70;;;3.63;100.00
11413;BME280;5762;43.256;26.960;2023-11-19T08:57:18;99401.73;;;3.66;100.00
11413;BME280;5762;43.256;26.960;2023-11-19T08:59:47;99397.48;;;3.73;100.00
11413;BME280;5762;43.256;26.960;2023-11-19T09:02:16;99398.80;;;3.70;100.00
11413;BME280;5762;43.256;26.960;2023-11-19T09:04:45;99398.55;;;3.72;100.00
11413;BME280;5762;43.256;26.960;2023-11-19T09:07:14;99385.45;;;3.75;100.00
11413;BME280;5762;43.256;26.960;2023-11-19T09:09:43;99404.73;;;3.77;100.00
11413;BME280;5762;43.256;26.960;2023-11-19T09:12:12;99405.00;;;3.78;100.00
11413;BME280;5762;43.256;26.960;2023-11-19T09:14:41;99413.58;;;3.88;100.00
11413;BME280;5762;43.256;26.960;2023-11-19T09:17:10;99411.45;;;3.92;100.00
11413;BME280;5762;43.256;26.960;2023-11-19T09:19:39;99420.11;;;4.15;100.00
11413;BME280;5762;43.256;26.960;2023-11-19T09:22:08;99409.14;;;4.29;100.00
11413;BME280;5762;43.256;26.960;2023-11-19T09:24:38;99409.44;;;4.35;100.00
11413;BME280;5762;43.256;26.960;2023-11-19T09:27:07;99410.77;;;4.35;100.00
11413;BME280;5762;43.256;26.960;2023-11-19T09:29:36;99408.36;;;4.36;100.00
11413;BME280;5762;43.256;26.960;2023-11-19T09:32:05;99410.78;;;4.40;100.00
11413;BME280;5762;43.256;26.960;2023-11-19T09:34:34;99405.95;;;4.37;100.00
11413;BME280;5762;43.256;26.960;2023-11-19T09:37:03;99391.49;;;4.41;100.00
11413;BME280;5762;43.256;26.960;2023-11-19T09:39:32;99383.47;;;4.48;100.00
11413;BME280;5762;43.256;26.960;2023-11-19T09:42:01;99394.16;;;4.33;100.00
11413;BME280;5762;43.256;26.960;2023-11-19T09:44:30;99377.52;;;4.21;100.00
11413;BME280;5762;43.256;26.960;2023-11-19T09:46:59;99394.62;;;3.99;100.00
11413;BME280;5762;43.256;26.960;2023-11-19T09:49:27;99383.67;;;4.19;100.00
11413;BME280;5762;43.256;26.960;2023-11-19T09:51:56;99375.67;;;4.52;100.00
11413;BME280;5762;43.256;26.960;2023-11-19T09:54:25;99370.06;;;4.63;100.00
11413;BME280;5762;43.256;26.960;2023-11-19T09:56:55;99368.19;;;4.79;100.00
11413;BME280;5762;43.256;26.960;2023-11-19T09:59:24;99356.93;;;4.82;100.00
11413;BME280;5762;43.256;26.960;2023-11-19T10:01:53;99355.86;;;4.83;100.00
11413;BME280;5762;43.256;26.960;2023-11-19T10:04:23;99352.87;;;4.90;100.00
11413;BME280;5762;43.256;26.960;2023-11-19T10:06:52;99367.92;;;4.70;100.00
11413;BME280;5762;43.256;26.960;2023-11-19T10:09:21;99370.59;;;4.65;100.00
11413;BME280;5762;43.256;26.960;2023-11-19T10:11:49;99363.36;;;4.74;100.00
11413;BME280;5762;43.256;26.960;2023-11-19T10:14:19;99369.53;;;4.71;100.00
11413;BME280;5762;43.256;26.960;2023-11-19T10:16:48;99377.57;;;4.74;100.00
11413;BME280;5762;43.256;26.960;2023-11-19T10:19:19;99384.81;;;4.81;100.00
11413;BME280;5762;43.256;26.960;2023-11-19T10:21:48;99387.76;;;4.75;100.00
11413;BME280;5762;43.256;26.960;2023-11-19T10:24:17;99381.86;;;4.75;100.00
11413;BME280;5762;43.256;26.960;2023-11-19T10:26:46;99365.48;;;4.87;100.00
11413;BME280;5762;43.256;26.960;2023-11-19T10:29:15;99366.55;;;5.01;100.00
11413;BME280;5762;43.256;26.960;2023-11-19T10:31:55;99365.75;;;4.93;100.00
11413;BME280;5762;43.256;26.960;2023-11-19T10:34:26;99364.94;;;5.00;100.00
11413;BME280;5762;43.256;26.960;2023-11-19T10:36:55;99361.72;;;5.05;100.00
11413;BME280;5762;43.256;26.960;2023-11-19T10:39:24;99342.66;;;5.17;100.00
11413;BME280;5762;43.256;26.960;2023-11-19T10:41:54;99341.84;;;5.19;100.00
11413;BME280;5762;43.256;26.960;2023-11-19T10:44:32;99341.31;;;5.17;100.00
11413;BME280;5762;43.256;26.960;2023-11-19T10:47:02;99334.55;;;5.30;100.00
11413;BME280;5762;43.256;26.960;2023-11-19T10:49:32;99326.47;;;5.43;100.00
11413;BME280;5762;43.256;26.960;2023-11-19T10:52:00;99322.09;;;5.57;100.00
11413;BME280;5762;43.256;26.960;2023-11-19T10:54:35;99319.64;;;5.65;100.00
11413;BME280;5762;43.256;26.960;2023-11-19T10:56:59;99313.50;;;5.57;100.00
11413;BME280;5762;43.256;26.960;2023-11-19T10:59:30;99313.77;;;5.58;100.00
11413;BME280;5762;43.256;26.960;2023-11-19T11:02:03;99310.33;;;5.53;100.00
11413;BME280;5762;43.256;26.960;2023-11-19T11:04:31;99302.02;;;5.49;100.00
11413;BME280;5762;43.256;26.960;2023-11-19T11:07:00;99308.76;;;5.42;100.00
11413;BME280;5762;43.256;26.960;2023-11-19T11:09:30;99300.44;;;5.43;100.00
11413;BME280;5762;43.256;26.960;2023-11-19T11:12:00;99299.61;;;5.48;100.00
11413;BME280;5762;43.256;26.960;2023-11-19T11:14:29;99296.84;;;5.63;100.00
11413;BME280;5762;43.256;26.960;2023-11-19T11:16:58;99306.45;;;5.74;100.00
11413;BME280;5762;43.256;26.960;2023-11-19T11:19:26;99305.89;;;5.80;100.00
11413;BME280;5762;43.256;26.960;2023-11-19T11:21:55;99300.53;;;5.77;100.00
11413;BME280;5762;43.256;26.960;2023-11-19T11:24:31;99298.42;;;5.69;100.00
11413;BME280;5762;43.256;26.960;2023-11-19T11:32:16;99297.03;;;5.79;100.00
11413;BME280;5762;43.256;26.960;2023-11-19T11:39:42;99292.63;;;5.98;100.00
11413;BME280;5762;43.256;26.960;2023-11-19T11:50:16;99290.54;;;6.27;100.00
11413;BME280;5762;43.256;26.960;2023-11-19T11:55:27;99286.90;;;6.47;100.00
11413;BME280;5762;43.256;26.960;2023-11-19T11:57:56;99280.40;;;6.53;100.00
11413;BME280;5762;43.256;26.960;2023-11-19T12:00:32;99266.86;;;6.60;100.00
11413;BME280;5762;43.256;26.960;2023-11-19T12:03:01;99282.63;;;6.72;100.00
11413;BME280;5762;43.256;26.960;2023-11-19T12:05:30;99275.36;;;6.72;100.00
11413;BME280;5762;43.256;26.960;2023-11-19T12:08:00;99278.56;;;6.75;100.00
11413;BME280;5762;43.256;26.960;2023-11-19T12:10:29;99283.02;;;6.87;100.00
11413;BME280;5762;43.256;26.960;2023-11-19T12:13:01;99279.90;;;7.01;100.00
11413;BME280;5762;43.256;26.960;2023-11-19T12:15:29;99288.15;;;7.10;100.00
11413;BME280;5762;43.256;26.960;2023-11-19T12:17:58;99300.46;;;7.16;100.00
11413;BME280;5762;43.256;26.960;2023-11-19T12:20:26;99293.40;;;7.22;100.00
11413;BME280;5762;43.256;26.960;2023-11-19T12:22:56;99304.42;;;7.23;100.00
11413;BME280;5762;43.256;26.960;2023-11-19T12:25:24;99295.03;;;7.21;100.00
11413;BME280;5762;43.256;26.960;2023-11-19T12:27:54;99300.53;;;7.32;100.00
11413;BME280;5762;43.256;26.960;2023-11-19T12:30:23;99302.96;;;7.31;100.00
11413;BME280;5762;43.256;26.960;2023-11-19T12:32:52;99301.42;;;7.27;100.00
11413;BME280;5762;43.256;26.960;2023-11-19T12:35:22;99305.37;;;7.32;100.00
11413;BME280;5762;43.256;26.960;2023-11-19T12:37:51;99308.89;;;7.30;100.00
11413;BME280;5762;43.256;26.960;2023-11-19T12:40:22;99316.94;;;7.33;100.00
11413;BME280;5762;43.256;26.960;2023-11-19T12:42:52;99317.80;;;7.28;100.00
11413;BME280;5762;43.256;26.960;2023-11-19T12:45:21;99323.83;;;7.20;100.00
11413;BME280;5762;43.256;26.960;2023-11-19T12:47:49;99311.23;;;7.16;100.00
11413;BME280;5762;43.256;26.960;2023-11-19T12:50:19;99320.36;;;7.17;100.00
11413;BME280;5762;43.256;26.960;2023-11-19T12:52:57;99313.09;;;7.18;100.00
11413;BME280;5762;43.256;26.960;2023-11-19T12:55:27;99320.36;;;7.17;100.00
11413;BME280;5762;43.256;26.960;2023-11-19T12:57:56;99313.14;;;7.13;100.00
11413;BME280;5762;43.256;26.960;2023-11-19T13:00:26;99319.84;;;7.15;100.00
11413;BME280;5762;43.256;26.960;2023-11-19T13:02:56;99321.22;;;7.13;100.00
11413;BME280;5762;43.256;26.960;2023-11-19T13:08:04;99317.25;;;7.05;100.00
11413;BME280;5762;43.256;26.960;2023-11-19T13:10:34;99325.13;;;6.96;100.00
11413;BME280;5762;43.256;26.960;2023-11-19T13:13:03;99334.83;;;6.95;100.00
11413;BME280;5762;43.256;26.960;2023-11-19T13:15:32;99332.83;;;6.82;100.00
11413;BME280;5762;43.256;26.960;2023-11-19T13:18:02;99325.33;;;6.79;100.00
11413;BME280;5762;43.256;26.960;2023-11-19T13:20:31;99328.88;;;6.71;100.00
11413;BME280;5762;43.256;26.960;2023-11-19T13:23:00;99324.33;;;6.69;100.00
11413;BME280;5762;43.256;26.960;2023-11-19T13:25:30;99320.81;;;6.71;100.00
11413;BME280;5762;43.256;26.960;2023-11-19T13:27:59;99319.48;;;6.69;100.00
11413;BME280;5762;43.256;26.960;2023-11-19T13:30:27;99314.41;;;6.65;100.00
11413;BME280;5762;43.256;26.960;2023-11-19T13:32:56;99315.78;;;6.62;100.00